createdAt,value
2018-05-02T00:00:40.856Z,101034.84
2018-05-02T00:01:44.184Z,101030.48
2018-05-02T00:02:47.503Z,101035.01
2018-05-02T00:03:50.853Z,101032.91
2018-05-02T00:04:54.291Z,101035.20
2018-05-02T00:05:57.620Z,101030.00
2018-05-02T00:07:01.011Z,101032.80
2018-05-02T00:08:04.505Z,101035.03
2018-05-02T00:09:07.928Z,101032.91
2018-05-02T00:10:11.278Z,101026.40
2018-05-02T00:11:14.669Z,101030.44
2018-05-02T00:12:18.169Z,101034.05
2018-05-02T00:13:21.630Z,101033.72
2018-05-02T00:14:25.241Z,101030.27
2018-05-02T00:15:28.640Z,101033.88
2018-05-02T00:16:32.275Z,101035.78
2018-05-02T00:17:35.762Z,101031.42
2018-05-02T00:18:39.132Z,101031.53
2018-05-02T00:19:42.450Z,101029.01
2018-05-02T00:20:45.822Z,101033.05
2018-05-02T00:21:49.167Z,101036.75
2018-05-02T00:22:52.899Z,101027.08
2018-05-02T00:23:56.347Z,101036.91
2018-05-02T00:24:59.716Z,101031.26
2018-05-02T00:26:03.028Z,101026.42
2018-05-02T00:27:06.376Z,101032.27
2018-05-02T00:28:09.724Z,101030.60
2018-05-02T00:29:13.123Z,101031.08
2018-05-02T00:30:16.499Z,101028.91
2018-05-02T00:31:19.957Z,101026.83
2018-05-02T00:32:23.315Z,101031.33
2018-05-02T00:33:26.793Z,101029.58
2018-05-02T00:34:30.199Z,101030.11
2018-05-02T00:35:33.541Z,101026.73
2018-05-02T00:36:36.891Z,101024.14
2018-05-02T00:38:49.788Z,101022.69
2018-05-02T00:39:53.118Z,101021.49
2018-05-02T00:40:56.555Z,101028.66
2018-05-02T00:41:59.965Z,101015.91
2018-05-02T00:43:03.288Z,101016.95
2018-05-02T00:44:06.676Z,101022.80
2018-05-02T00:45:10.027Z,101017.58
2018-05-02T00:46:13.418Z,101024.27
2018-05-02T00:47:16.898Z,101023.05
2018-05-02T00:48:20.470Z,101020.10
2018-05-02T00:49:23.808Z,101020.16
2018-05-02T00:50:27.159Z,101017.55
2018-05-02T00:51:30.836Z,101012.33
2018-05-02T00:52:34.444Z,101015.46
2018-05-02T00:53:37.944Z,101015.99
2018-05-02T00:54:41.287Z,101012.06
2018-05-02T00:55:44.819Z,101013.05
2018-05-02T00:56:48.200Z,101013.53
2018-05-02T00:57:51.513Z,101012.73
2018-05-02T00:58:54.897Z,101013.69
2018-05-02T00:59:58.550Z,101012.87
2018-05-02T01:01:01.875Z,101012.07
2018-05-02T01:02:05.230Z,101014.36
2018-05-02T01:03:08.561Z,101007.86
2018-05-02T01:04:11.977Z,101008.81
2018-05-02T01:05:15.369Z,101015.98
2018-05-02T01:06:18.654Z,101016.55
2018-05-02T01:07:22.004Z,101019.30
2018-05-02T01:08:25.349Z,101020.72
2018-05-02T01:09:28.672Z,101016.78
2018-05-02T01:10:32.179Z,101017.69
2018-05-02T01:11:36.401Z,101024.43
2018-05-02T01:12:39.730Z,101026.75
2018-05-02T01:13:43.112Z,101029.87
2018-05-02T01:14:46.472Z,101022.81
2018-05-02T01:15:49.847Z,101024.25
2018-05-02T01:16:53.546Z,101023.82
2018-05-02T01:17:56.938Z,101023.91
2018-05-02T01:19:00.270Z,101021.33
2018-05-02T01:20:03.627Z,101028.38
2018-05-02T01:21:07.001Z,101026.77
2018-05-02T01:22:10.330Z,101029.48
2018-05-02T01:23:13.753Z,101028.20
2018-05-02T01:24:17.064Z,101030.48
2018-05-02T01:25:20.586Z,101032.80
2018-05-02T01:26:24.018Z,101031.95
2018-05-02T01:27:27.567Z,101031.58
2018-05-02T01:28:30.984Z,101035.18
2018-05-02T01:29:34.369Z,101032.53
2018-05-02T01:30:37.852Z,101039.72
2018-05-02T01:31:41.232Z,101038.02
2018-05-02T01:32:44.564Z,101035.42
2018-05-02T01:33:48.051Z,101033.80
2018-05-02T01:34:51.385Z,101040.92
2018-05-02T01:35:54.711Z,101039.22
2018-05-02T01:36:58.117Z,101033.99
2018-05-02T01:38:01.773Z,101035.42
2018-05-02T01:39:05.141Z,101035.95
2018-05-02T01:40:08.490Z,101033.86
2018-05-02T01:41:11.845Z,101035.23
2018-05-02T01:42:15.252Z,101032.63
2018-05-02T01:43:18.588Z,101033.24
2018-05-02T01:44:21.903Z,101036.85
2018-05-02T01:45:25.296Z,101034.81
2018-05-02T01:46:28.642Z,101038.84
2018-05-02T01:47:32.031Z,101036.71
2018-05-02T01:48:35.413Z,101042.16
2018-05-02T01:49:38.740Z,101036.90
2018-05-02T01:50:42.122Z,101033.53
2018-05-02T01:51:45.765Z,101036.70
2018-05-02T01:52:49.196Z,101031.88
2018-05-02T01:53:52.591Z,101032.44
2018-05-02T01:54:56.471Z,101035.19
2018-05-02T01:55:59.866Z,101037.98
2018-05-02T01:57:03.352Z,101035.86
2018-05-02T01:58:06.740Z,101029.33
2018-05-02T01:59:10.126Z,101028.61
2018-05-02T02:00:13.464Z,101023.01
2018-05-02T02:01:16.766Z,101021.36
2018-05-02T02:02:20.139Z,101020.08
2018-05-02T02:03:23.549Z,101020.56
2018-05-02T02:04:27.135Z,101022.87
2018-05-02T02:05:30.441Z,101021.17
2018-05-02T02:06:33.760Z,101021.22
2018-05-02T02:07:37.194Z,101019.98
2018-05-02T02:08:40.597Z,101017.80
2018-05-02T02:09:44.081Z,101017.38
2018-05-02T02:10:47.545Z,101016.52
2018-05-02T02:11:50.954Z,101014.77
2018-05-02T02:12:54.342Z,101018.80
2018-05-02T02:13:57.753Z,101011.75
2018-05-02T02:15:01.085Z,101010.98
2018-05-02T02:16:04.441Z,101009.70
2018-05-02T02:17:08.083Z,101004.39
2018-05-02T02:18:11.481Z,101006.20
2018-05-02T02:19:14.960Z,100998.80
2018-05-02T02:20:19.264Z,100993.59
2018-05-02T02:21:22.563Z,100999.37
2018-05-02T02:22:25.947Z,101002.98
2018-05-02T02:23:29.304Z,100996.78
2018-05-02T02:24:32.630Z,100999.56
2018-05-02T02:25:36.115Z,101000.46
2018-05-02T02:26:39.693Z,100990.33
2018-05-02T02:27:43.017Z,100997.02
2018-05-02T02:28:46.371Z,100994.44
2018-05-02T02:29:50.051Z,100994.91
2018-05-02T02:30:53.468Z,100990.56
2018-05-02T02:31:56.892Z,100998.95
2018-05-02T02:33:00.262Z,100998.57
2018-05-02T02:34:03.681Z,100995.97
2018-05-02T02:35:07.045Z,100992.92
2018-05-02T02:36:10.376Z,100990.75
2018-05-02T02:37:13.827Z,100987.67
2018-05-02T02:38:17.165Z,100987.34
2018-05-02T02:39:20.532Z,100995.25
2018-05-02T02:40:24.091Z,100996.20
2018-05-02T02:41:27.487Z,100992.73
2018-05-02T02:42:30.856Z,100993.63
2018-05-02T02:43:34.599Z,100991.93
2018-05-02T02:44:38.035Z,100991.98
2018-05-02T02:45:41.386Z,100992.03
2018-05-02T02:46:44.817Z,100989.03
2018-05-02T02:47:48.152Z,100988.19
2018-05-02T02:48:51.488Z,100986.91
2018-05-02T02:49:54.832Z,100985.64
2018-05-02T02:50:58.200Z,100982.22
2018-05-02T02:52:01.576Z,100978.77
2018-05-02T02:53:04.974Z,100979.72
2018-05-02T02:54:08.313Z,100982.45
2018-05-02T02:55:11.680Z,100977.62
2018-05-02T02:56:15.141Z,100977.20
2018-05-02T02:57:18.537Z,100984.30
2018-05-02T02:58:21.889Z,100975.13
2018-05-02T02:59:25.221Z,100985.34
2018-05-02T03:00:28.704Z,100985.86
2018-05-02T03:01:32.189Z,100980.18
2018-05-02T03:02:35.583Z,100984.20
2018-05-02T03:03:38.956Z,100986.04
2018-05-02T03:04:42.607Z,100984.77
2018-05-02T03:05:46.456Z,100980.79
2018-05-02T03:06:49.819Z,100985.29
2018-05-02T03:07:53.385Z,100981.79
2018-05-02T03:08:56.777Z,100980.12
2018-05-02T03:10:00.360Z,100974.39
2018-05-02T03:11:03.724Z,100984.14
2018-05-02T03:12:07.119Z,100978.89
2018-05-02T03:13:10.490Z,100978.47
2018-05-02T03:14:13.961Z,100977.19
2018-05-02T03:15:17.432Z,100973.22
2018-05-02T03:16:20.933Z,100979.50
2018-05-02T03:17:24.670Z,100981.77
2018-05-02T03:19:30.544Z,100976.05
2018-05-02T03:20:33.899Z,100982.25
2018-05-02T03:21:37.378Z,100980.97
2018-05-02T03:22:40.706Z,100984.13
2018-05-02T03:23:44.038Z,100978.45
2018-05-02T03:24:47.368Z,100981.53
2018-05-02T03:25:50.721Z,100983.81
2018-05-02T03:26:54.060Z,100982.06
2018-05-02T03:27:57.519Z,100983.38
2018-05-02T03:29:00.890Z,100992.66
2018-05-02T03:30:04.228Z,100986.51
2018-05-02T03:31:07.566Z,100987.48
2018-05-02T03:32:10.892Z,100977.36
2018-05-02T03:33:14.244Z,100981.39
2018-05-02T03:34:17.655Z,100977.41
2018-05-02T03:35:20.999Z,100978.31
2018-05-02T03:36:24.319Z,100977.55
2018-05-02T03:37:27.658Z,100970.97
2018-05-02T03:38:31.039Z,100972.39
2018-05-02T03:39:34.357Z,100975.09
2018-05-02T03:40:37.717Z,100974.70
2018-05-02T03:41:41.015Z,100978.25
2018-05-02T03:42:44.343Z,100977.34
2018-05-02T03:43:47.700Z,100984.92
2018-05-02T03:44:51.066Z,100980.52
2018-05-02T03:45:54.378Z,100981.00
2018-05-02T03:46:57.729Z,100977.07
2018-05-02T03:48:01.379Z,100980.20
2018-05-02T03:49:04.740Z,100975.41
2018-05-02T03:50:08.097Z,100979.91
2018-05-02T03:51:11.423Z,100983.50
2018-05-02T03:52:14.882Z,100981.83
2018-05-02T03:53:18.220Z,100990.25
2018-05-02T03:54:21.545Z,100985.00
2018-05-02T03:55:24.877Z,100978.42
2018-05-02T03:56:28.211Z,100988.17
2018-05-02T03:57:31.539Z,100979.80
2018-05-02T03:58:34.870Z,100985.19
2018-05-02T03:59:50.063Z,100986.51
2018-05-02T04:01:05.226Z,100988.11
2018-05-02T04:02:20.269Z,100992.31
2018-05-02T04:03:35.443Z,100988.98
2018-05-02T04:04:50.746Z,100993.11
2018-05-02T04:06:05.973Z,100991.02
2018-05-02T04:07:14.258Z,100991.53
2018-05-02T04:08:17.584Z,100990.16
2018-05-02T04:09:21.185Z,100993.53
2018-05-02T04:10:24.534Z,100990.78
2018-05-02T04:11:27.889Z,100997.28
2018-05-02T04:12:31.240Z,100993.73
2018-05-02T04:13:34.581Z,100994.95
2018-05-02T04:14:37.922Z,101004.66
2018-05-02T04:15:41.309Z,100997.95
2018-05-02T04:16:44.651Z,101007.13
2018-05-02T04:17:49.075Z,101010.20
2018-05-02T04:18:52.416Z,101005.33
2018-05-02T04:19:55.756Z,101011.91
2018-05-02T04:20:59.111Z,101005.63
2018-05-02T04:22:02.515Z,101002.55
2018-05-02T04:23:05.876Z,101000.33
2018-05-02T04:24:09.250Z,101001.66
2018-05-02T04:25:12.645Z,101004.25
2018-05-02T04:26:16.009Z,101007.85
2018-05-02T04:27:19.330Z,101014.86
2018-05-02T04:28:22.653Z,101013.11
2018-05-02T04:29:25.975Z,101010.83
2018-05-02T04:30:29.625Z,101008.18
2018-05-02T04:31:32.997Z,101019.63
2018-05-02T04:32:36.340Z,101014.67
2018-05-02T04:33:39.676Z,101020.41
2018-05-02T04:34:42.994Z,101020.35
2018-05-02T04:35:46.336Z,101021.62
2018-05-02T04:36:49.679Z,101019.87
2018-05-02T04:37:53.029Z,101022.95
2018-05-02T04:38:56.485Z,101021.20
2018-05-02T04:39:59.822Z,101025.55
2018-05-02T04:41:03.212Z,101016.28
2018-05-02T04:42:06.504Z,101015.25
2018-05-02T04:43:09.835Z,101016.10
2018-05-02T04:44:13.263Z,101019.17
2018-05-02T04:45:16.595Z,101017.80
2018-05-02T04:46:20.031Z,101014.25
2018-05-02T04:47:23.418Z,101022.20
2018-05-02T04:48:26.739Z,101019.47
2018-05-02T04:49:30.306Z,101014.13
2018-05-02T04:50:33.641Z,101019.38
2018-05-02T04:51:36.981Z,101021.47
2018-05-02T04:52:40.398Z,101020.14
2018-05-02T04:53:43.668Z,101022.70
2018-05-02T04:54:46.997Z,101021.38
2018-05-02T04:55:50.338Z,101018.62
2018-05-02T04:56:53.736Z,101019.44
2018-05-02T04:57:57.111Z,101020.77
2018-05-02T04:59:00.458Z,101020.67
2018-05-02T05:00:03.802Z,101021.95
2018-05-02T05:01:07.142Z,101024.59
2018-05-02T05:02:10.510Z,101028.45
2018-05-02T05:03:13.892Z,101031.00
2018-05-02T05:04:17.228Z,101025.22
2018-05-02T05:05:20.590Z,101028.59
2018-05-02T05:06:23.940Z,101027.22
2018-05-02T05:07:27.259Z,101030.72
2018-05-02T05:08:30.610Z,101035.12
2018-05-02T05:09:33.951Z,101035.89
2018-05-02T05:10:37.294Z,101032.29
2018-05-02T05:11:40.631Z,101039.30
2018-05-02T05:12:43.947Z,101033.01
2018-05-02T05:13:47.278Z,101036.52
2018-05-02T05:14:50.619Z,101036.46
2018-05-02T05:15:53.964Z,101036.46
2018-05-02T05:16:57.318Z,101040.81
2018-05-02T05:18:01.180Z,101038.98
2018-05-02T05:19:06.716Z,101044.19
2018-05-02T05:20:10.060Z,101048.97
2018-05-02T05:21:13.444Z,101045.76
2018-05-02T05:22:16.790Z,101048.23
2018-05-02T05:23:20.150Z,101043.25
2018-05-02T05:24:23.673Z,101048.38
2018-05-02T05:25:27.118Z,101046.95
2018-05-02T05:26:30.571Z,101053.53
2018-05-02T05:27:33.896Z,101046.82
2018-05-02T05:28:37.229Z,101048.05
2018-05-02T05:29:40.569Z,101055.88
2018-05-02T05:30:43.960Z,101056.20
2018-05-02T05:31:47.297Z,101048.62
2018-05-02T05:32:50.656Z,101049.77
2018-05-02T05:33:53.998Z,101044.83
2018-05-02T05:34:57.339Z,101047.73
2018-05-02T05:36:00.702Z,101051.66
2018-05-02T05:37:04.019Z,101049.25
2018-05-02T05:38:07.433Z,101053.57
2018-05-02T05:39:10.827Z,101051.53
2018-05-02T05:40:14.188Z,101048.41
2018-05-02T05:41:17.621Z,101053.15
2018-05-02T05:42:20.950Z,101053.53
2018-05-02T05:43:24.276Z,101055.24
2018-05-02T05:44:27.607Z,101052.52
2018-05-02T05:45:31.100Z,101048.45
2018-05-02T05:46:34.429Z,101051.86
2018-05-02T05:47:37.803Z,101056.11
2018-05-02T05:48:41.158Z,101045.83
2018-05-02T05:49:44.485Z,101048.50
2018-05-02T05:50:47.881Z,101048.78
2018-05-02T05:51:51.310Z,101049.87
2018-05-02T05:52:54.644Z,101051.09
2018-05-02T05:53:58.007Z,101044.92
2018-05-02T05:55:01.559Z,101041.25
2018-05-02T05:56:05.011Z,101049.88
2018-05-02T05:57:08.422Z,101047.09
2018-05-02T05:58:11.726Z,101041.48
2018-05-02T05:59:15.059Z,101045.72
2018-05-02T06:00:18.421Z,101049.51
2018-05-02T06:01:21.783Z,101046.47
2018-05-02T06:02:25.236Z,101051.55
2018-05-02T06:03:28.563Z,101052.57
2018-05-02T06:04:31.896Z,101051.81
2018-05-02T06:05:35.270Z,101055.54
2018-05-02T06:06:38.620Z,101050.99
2018-05-02T06:07:41.975Z,101049.36
2018-05-02T06:08:45.394Z,101050.10
2018-05-02T06:09:48.722Z,101051.62
2018-05-02T06:10:52.111Z,101051.36
2018-05-02T06:11:55.489Z,101050.70
2018-05-02T06:12:58.831Z,101053.47
2018-05-02T06:14:02.288Z,101049.65
2018-05-02T06:15:05.661Z,101049.98
2018-05-02T06:16:09.015Z,101049.30
2018-05-02T06:17:13.238Z,101052.09
2018-05-02T06:18:16.723Z,101046.82
2018-05-02T06:19:20.056Z,101050.85
2018-05-02T06:20:23.382Z,101045.50
2018-05-02T06:21:26.722Z,101045.09
2018-05-02T06:22:30.078Z,101046.08
2018-05-02T06:23:33.391Z,101048.23
2018-05-02T06:24:36.705Z,101043.17
2018-05-02T06:25:40.024Z,101046.53
2018-05-02T06:26:43.402Z,101043.05
2018-05-02T06:27:46.776Z,101045.47
2018-05-02T06:28:50.201Z,101041.58
2018-05-02T06:29:53.514Z,101039.77
2018-05-02T06:30:56.929Z,101045.86
2018-05-02T06:32:00.313Z,101044.52
2018-05-02T06:33:03.621Z,101038.65
2018-05-02T06:34:07.007Z,101034.62
2018-05-02T06:35:10.354Z,101041.55
2018-05-02T06:36:13.697Z,101040.94
2018-05-02T06:37:17.041Z,101037.34
2018-05-02T06:38:20.592Z,101040.28
2018-05-02T06:39:23.961Z,101043.24
2018-05-02T06:40:27.271Z,101038.48
2018-05-02T06:41:30.607Z,101031.10
2018-05-02T06:42:33.999Z,101035.55
2018-05-02T06:43:37.344Z,101036.48
2018-05-02T06:44:40.748Z,101038.15
2018-05-02T06:45:44.078Z,101036.17
2018-05-02T06:46:47.420Z,101035.04
2018-05-02T06:47:50.796Z,101034.91
2018-05-02T06:48:54.125Z,101040.66
2018-05-02T06:49:57.474Z,101027.59
2018-05-02T06:51:00.823Z,101028.11
2018-05-02T06:52:04.162Z,101031.03
2018-05-02T06:53:07.583Z,101035.17
2018-05-02T06:54:10.938Z,101030.63
2018-05-02T06:55:14.259Z,101033.54
2018-05-02T06:56:17.629Z,101029.16
2018-05-02T06:57:21.081Z,101029.20
2018-05-02T06:58:24.947Z,101027.08
2018-05-02T06:59:28.352Z,101029.61
2018-05-02T07:00:31.689Z,101035.70
2018-05-02T07:01:35.008Z,101033.03
2018-05-02T07:02:38.357Z,101032.41
2018-05-02T07:03:41.700Z,101029.45
2018-05-02T07:04:45.094Z,101030.16
2018-05-02T07:05:48.426Z,101032.33
2018-05-02T07:06:51.795Z,101032.73
2018-05-02T07:07:55.152Z,101033.73
2018-05-02T07:08:58.566Z,101027.09
2018-05-02T07:10:01.912Z,101032.16
2018-05-02T07:11:05.236Z,101023.17
2018-05-02T07:12:08.638Z,101034.06
2018-05-02T07:13:11.931Z,101025.05
2018-05-02T07:14:15.291Z,101029.80
2018-05-02T07:15:18.723Z,101027.02
2018-05-02T07:16:22.039Z,101033.19
2018-05-02T07:17:25.414Z,101034.31
2018-05-02T07:18:28.792Z,101034.83
2018-05-02T07:19:32.119Z,101037.70
2018-05-02T07:20:35.464Z,101040.43
2018-05-02T07:21:38.779Z,101035.56
2018-05-02T07:22:42.135Z,101037.52
2018-05-02T07:23:45.443Z,101034.91
2018-05-02T07:24:48.763Z,101039.23
2018-05-02T07:25:52.220Z,101035.39
2018-05-02T07:26:55.532Z,101033.44
2018-05-02T07:27:58.930Z,101030.53
2018-05-02T07:29:02.275Z,101026.30
2018-05-02T07:30:05.594Z,101027.84
2018-05-02T07:31:08.931Z,101021.23
2018-05-02T07:32:12.331Z,101023.87
2018-05-02T07:33:15.653Z,101023.27
2018-05-02T07:34:18.987Z,101023.65
2018-05-02T07:35:22.343Z,101029.06
2018-05-02T07:36:25.740Z,101033.03
2018-05-02T07:37:29.060Z,101026.03
2018-05-02T07:38:32.428Z,101025.31
2018-05-02T07:39:35.777Z,101027.75
2018-05-02T07:40:39.092Z,101027.09
2018-05-02T07:41:42.448Z,101024.86
2018-05-02T07:43:55.473Z,101026.70
2018-05-02T07:44:58.807Z,101019.97
2018-05-02T07:46:02.139Z,101017.91
2018-05-02T07:47:05.538Z,101021.27
2018-05-02T07:48:08.868Z,101017.67
2018-05-02T07:49:12.448Z,101025.02
2018-05-02T07:50:15.827Z,101020.30
2018-05-02T07:51:19.155Z,101028.42
2018-05-02T07:52:22.516Z,101027.19
2018-05-02T07:53:25.890Z,101021.06
2018-05-02T07:54:29.657Z,101020.31
2018-05-02T07:55:32.967Z,101025.80
2018-05-02T07:56:36.345Z,101017.52
2018-05-02T07:57:39.710Z,101017.09
2018-05-02T07:58:43.061Z,101016.25
2018-05-02T07:59:46.392Z,101017.66
2018-05-02T08:00:49.748Z,101019.06
2018-05-02T08:01:53.084Z,101015.34
2018-05-02T08:02:56.430Z,101013.40
2018-05-02T08:03:59.773Z,101012.23
2018-05-02T08:05:03.113Z,101006.09
2018-05-02T08:06:06.431Z,101005.84
2018-05-02T08:07:09.858Z,101011.39
2018-05-02T08:08:13.200Z,101007.62
2018-05-02T08:09:16.520Z,101006.94
2018-05-02T08:10:19.858Z,101006.22
2018-05-02T08:11:23.253Z,101009.98
2018-05-02T08:12:26.522Z,101012.78
2018-05-02T08:13:29.859Z,101009.78
2018-05-02T08:14:33.202Z,101011.26
2018-05-02T08:15:36.559Z,101009.14
2018-05-02T08:16:39.863Z,101009.14
2018-05-02T08:17:43.191Z,101005.55
2018-05-02T08:18:47.530Z,101008.65
2018-05-02T08:19:50.892Z,101002.32
2018-05-02T08:20:54.244Z,101004.50
2018-05-02T08:21:57.730Z,101002.58
2018-05-02T08:23:00.971Z,101003.72
2018-05-02T08:24:04.346Z,101003.13
2018-05-02T08:25:07.673Z,100996.23
2018-05-02T08:26:11.003Z,100998.19
2018-05-02T08:27:14.313Z,100996.19
2018-05-02T08:28:17.657Z,100994.66
2018-05-02T08:29:21.025Z,100995.89
2018-05-02T08:30:24.340Z,100993.21
2018-05-02T08:31:27.673Z,100988.78
2018-05-02T08:32:31.013Z,100989.20
2018-05-02T08:33:34.324Z,100980.69
2018-05-02T08:34:37.755Z,100986.88
2018-05-02T08:35:41.161Z,100980.19
2018-05-02T08:36:44.546Z,100982.70
2018-05-02T08:37:48.369Z,100987.91
2018-05-02T08:38:52.996Z,100989.25
2018-05-02T08:39:56.312Z,100985.59
2018-05-02T08:40:59.630Z,100981.91
2018-05-02T08:42:02.992Z,100978.18
2018-05-02T08:43:06.320Z,100981.60
2018-05-02T08:44:09.656Z,100983.65
2018-05-02T08:45:13.019Z,100982.08
2018-05-02T08:46:16.600Z,100975.25
2018-05-02T08:47:20.001Z,100967.55
2018-05-02T08:48:23.641Z,100968.81
2018-05-02T08:49:27.028Z,100967.48
2018-05-02T08:50:30.426Z,100963.20
2018-05-02T08:51:33.742Z,100960.53
2018-05-02T08:52:37.258Z,100954.69
2018-05-02T08:53:40.600Z,100955.08
2018-05-02T08:54:44.085Z,100958.60
2018-05-02T08:55:47.645Z,100960.44
2018-05-02T08:56:51.009Z,100960.86
2018-05-02T08:57:54.672Z,100960.78
2018-05-02T08:58:58.097Z,100961.70
2018-05-02T09:00:01.416Z,100962.55
2018-05-02T09:01:04.798Z,100960.78
2018-05-02T09:02:08.142Z,100956.77
2018-05-02T09:03:11.463Z,100957.12
2018-05-02T09:04:15.088Z,100958.00
2018-05-02T09:05:18.494Z,100954.52
2018-05-02T09:06:21.895Z,100952.55
2018-05-02T09:07:25.230Z,100947.55
2018-05-02T09:08:28.599Z,100947.25
2018-05-02T09:09:31.937Z,100945.60
2018-05-02T09:10:35.274Z,100946.56
2018-05-02T09:11:38.602Z,100948.37
2018-05-02T09:12:41.924Z,100951.40
2018-05-02T09:13:45.244Z,100949.89
2018-05-02T09:14:48.568Z,100944.39
2018-05-02T09:15:52.136Z,100949.23
2018-05-02T09:16:55.580Z,100950.98
2018-05-02T09:17:58.948Z,100952.26
2018-05-02T09:19:02.415Z,100945.84
2018-05-02T09:20:05.741Z,100946.10
2018-05-02T09:21:09.067Z,100949.06
2018-05-02T09:22:12.428Z,100950.65
2018-05-02T09:23:16.139Z,100942.80
2018-05-02T09:24:19.543Z,100938.89
2018-05-02T09:25:22.908Z,100935.27
2018-05-02T09:26:26.247Z,100940.56
2018-05-02T09:27:29.591Z,100940.46
2018-05-02T09:28:33.050Z,100939.06
2018-05-02T09:29:36.354Z,100937.33
2018-05-02T09:30:39.689Z,100937.02
2018-05-02T09:31:42.998Z,100933.53
2018-05-02T09:32:46.337Z,100935.47
2018-05-02T09:33:49.678Z,100943.61
2018-05-02T09:34:53.096Z,100939.95
2018-05-02T09:35:56.437Z,100939.34
2018-05-02T09:36:59.748Z,100945.05
2018-05-02T09:38:03.128Z,100934.27
2018-05-02T09:39:06.452Z,100930.25
2018-05-02T09:40:09.784Z,100927.81
2018-05-02T09:41:13.104Z,100929.51
2018-05-02T09:42:16.443Z,100932.75
2018-05-02T09:43:19.793Z,100926.73
2018-05-02T09:44:23.122Z,100927.71
2018-05-02T09:45:26.457Z,100922.36
2018-05-02T09:46:30.240Z,100922.42
2018-05-02T09:47:33.644Z,100923.77
2018-05-02T09:48:37.028Z,100924.72
2018-05-02T09:49:40.377Z,100920.84
2018-05-02T09:50:43.699Z,100920.48
2018-05-02T09:51:47.059Z,100921.51
2018-05-02T09:52:50.414Z,100916.72
2018-05-02T09:53:53.806Z,100911.92
2018-05-02T09:54:57.164Z,100913.61
2018-05-02T09:56:00.579Z,100915.37
2018-05-02T09:57:03.907Z,100910.02
2018-05-02T09:58:07.237Z,100910.58
2018-05-02T09:59:10.644Z,100915.88
2018-05-02T10:00:14.024Z,100911.61
2018-05-02T10:01:17.357Z,100914.56
2018-05-02T10:02:20.889Z,100912.06
2018-05-02T10:03:24.218Z,100911.32
2018-05-02T10:04:27.588Z,100913.78
2018-05-02T10:05:30.872Z,100916.29
2018-05-02T10:06:34.266Z,100916.56
2018-05-02T10:07:37.640Z,100916.88
2018-05-02T10:08:41.090Z,100912.44
2018-05-02T10:09:44.425Z,100906.59
2018-05-02T10:10:47.745Z,100911.03
2018-05-02T10:11:51.126Z,100906.59
2018-05-02T10:12:54.493Z,100904.19
2018-05-02T10:13:57.804Z,100907.78
2018-05-02T10:15:01.194Z,100907.71
2018-05-02T10:16:04.547Z,100906.69
2018-05-02T10:17:07.894Z,100901.69
2018-05-02T10:18:11.203Z,100906.72
2018-05-02T10:19:16.239Z,100900.20
2018-05-02T10:20:19.607Z,100903.67
2018-05-02T10:21:22.974Z,100902.29
2018-05-02T10:22:26.304Z,100902.14
2018-05-02T10:23:29.719Z,100907.95
2018-05-02T10:24:33.023Z,100906.14
2018-05-02T10:25:36.400Z,100898.86
2018-05-02T10:26:39.754Z,100897.12
2018-05-02T10:27:43.084Z,100893.34
2018-05-02T10:28:46.680Z,100900.74
2018-05-02T10:29:50.033Z,100900.56
2018-05-02T10:30:53.415Z,100900.41
2018-05-02T10:31:56.743Z,100889.61
2018-05-02T10:33:00.106Z,100891.37
2018-05-02T10:34:03.477Z,100893.14
2018-05-02T10:35:06.802Z,100899.92
2018-05-02T10:36:10.215Z,100892.80
2018-05-02T10:37:13.552Z,100887.50
2018-05-02T10:38:16.911Z,100888.00
2018-05-02T10:39:20.442Z,100889.76
2018-05-02T10:40:23.752Z,100892.37
2018-05-02T10:41:27.133Z,100885.17
2018-05-02T10:42:30.576Z,100881.30
2018-05-02T10:43:33.955Z,100878.87
2018-05-02T10:44:37.259Z,100885.72
2018-05-02T10:45:40.613Z,100875.77
2018-05-02T10:46:43.969Z,100875.02
2018-05-02T10:47:47.336Z,100875.53
2018-05-02T10:48:50.717Z,100875.20
2018-05-02T10:49:54.037Z,100878.58
2018-05-02T10:50:57.338Z,100875.79
2018-05-02T10:52:00.762Z,100879.31
2018-05-02T10:53:04.059Z,100874.45
2018-05-02T10:54:07.413Z,100866.52
2018-05-02T10:55:10.725Z,100868.34
2018-05-02T10:56:14.121Z,100865.31
2018-05-02T10:57:17.519Z,100868.98
2018-05-02T10:58:20.812Z,100866.64
2018-05-02T10:59:24.254Z,100869.50
2018-05-02T11:00:27.559Z,100864.21
2018-05-02T11:01:30.873Z,100861.03
2018-05-02T11:02:34.300Z,100857.44
2018-05-02T11:03:37.605Z,100857.86
2018-05-02T11:04:40.907Z,100858.67
2018-05-02T11:05:44.259Z,100860.28
2018-05-02T11:06:47.571Z,100861.55
2018-05-02T11:07:50.923Z,100856.50
2018-05-02T11:08:54.261Z,100857.34
2018-05-02T11:09:57.572Z,100850.56
2018-05-02T11:11:00.920Z,100856.77
2018-05-02T11:12:04.234Z,100850.31
2018-05-02T11:13:07.572Z,100852.08
2018-05-02T11:14:10.892Z,100847.91
2018-05-02T11:15:14.278Z,100849.17
2018-05-02T11:16:17.593Z,100841.78
2018-05-02T11:17:21.071Z,100840.61
2018-05-02T11:18:24.431Z,100846.73
2018-05-02T11:19:29.652Z,100839.85
2018-05-02T11:20:32.979Z,100840.20
2018-05-02T11:21:36.284Z,100842.39
2018-05-02T11:22:39.652Z,100840.05
2018-05-02T11:23:43.003Z,100835.26
2018-05-02T11:24:46.326Z,100842.31
2018-05-02T11:25:49.706Z,100838.60
2018-05-02T11:26:53.036Z,100843.73
2018-05-02T11:27:56.356Z,100844.23
2018-05-02T11:28:59.726Z,100848.16
2018-05-02T11:30:03.080Z,100842.72
2018-05-02T11:31:06.404Z,100836.36
2018-05-02T11:32:09.738Z,100833.17
2018-05-02T11:33:13.143Z,100831.41
2018-05-02T11:34:16.527Z,100826.13
2018-05-02T11:35:19.948Z,100822.94
2018-05-02T11:36:23.338Z,100827.31
2018-05-02T11:37:26.675Z,100821.03
2018-05-02T11:38:29.972Z,100821.77
2018-05-02T11:39:33.373Z,100825.22
2018-05-02T11:40:36.785Z,100820.58
2018-05-02T11:41:40.148Z,100821.28
2018-05-02T11:42:43.474Z,100824.27
2018-05-02T11:43:46.800Z,100821.02
2018-05-02T11:44:50.163Z,100824.13
2018-05-02T11:45:53.851Z,100823.28
2018-05-02T11:46:57.160Z,100820.09
2018-05-02T11:48:00.496Z,100813.31
2018-05-02T11:49:03.812Z,100808.61
2018-05-02T11:50:07.192Z,100817.84
2018-05-02T11:51:10.523Z,100820.77
2018-05-02T11:52:13.839Z,100815.14
2018-05-02T11:53:17.157Z,100814.98
2018-05-02T11:54:20.612Z,100816.17
2018-05-02T11:55:23.976Z,100821.02
2018-05-02T11:56:27.291Z,100817.26
2018-05-02T11:57:30.619Z,100811.70
2018-05-02T11:58:33.950Z,100815.50
2018-05-02T11:59:37.298Z,100808.11
2018-05-02T12:00:40.702Z,100808.27
2018-05-02T12:01:44.035Z,100811.14
2018-05-02T12:02:47.368Z,100807.38
2018-05-02T12:03:50.776Z,100810.84
2018-05-02T12:04:54.211Z,100809.30
2018-05-02T12:05:57.621Z,100803.29
2018-05-02T12:07:00.915Z,100801.76
2018-05-02T12:08:04.253Z,100809.39